sensor_id;sensor_type;location;lat;lon;timestamp;pressure;altitude;pressure_sealevel;temperature;humidity
73106;BME280;61559;50.476;15.588;2024-03-22T00:00:01;98089.02;;;7.75;76.77
73106;BME280;61559;50.476;15.588;2024-03-22T00:02:37;98087.07;;;7.70;76.73
73106;BME280;61559;50.476;15.588;2024-03-22T00:05:07;98079.68;;;7.65;76.63
73106;BME280;61559;50.476;15.588;2024-03-22T00:07:38;98075.83;;;7.61;76.74
73106;BME280;61559;50.476;15.588;2024-03-22T00:10:09;98067.73;;;7.55;76.66
73106;BME280;61559;50.476;15.588;2024-03-22T00:12:40;98065.59;;;7.49;76.76
73106;BME280;61559;50.476;15.588;2024-03-22T00:15:11;98061.95;;;7.44;76.84
73106;BME280;61559;50.476;15.588;2024-03-22T00:17:44;98052.84;;;7.38;76.82
73106;BME280;61559;50.476;15.588;2024-03-22T00:20:15;98052.70;;;7.31;76.97
73106;BME280;61559;50.476;15.588;2024-03-22T00:23:06;98048.16;;;7.22;77.13
73106;BME280;61559;50.476;15.588;2024-03-22T00:25:36;98046.63;;;7.16;77.25
73106;BME280;61559;50.476;15.588;2024-03-22T00:28:07;98036.34;;;7.10;77.43
73106;BME280;61559;50.476;15.588;2024-03-22T00:30:38;98038.82;;;7.01;77.64
73106;BME280;61559;50.476;15.588;2024-03-22T00:33:10;98036.66;;;6.93;77.63
73106;BME280;61559;50.476;15.588;2024-03-22T00:35:41;98032.98;;;6.85;77.50
73106;BME280;61559;50.476;15.588;2024-03-22T00:38:11;98032.11;;;6.79;77.54
73106;BME280;61559;50.476;15.588;2024-03-22T00:40:42;98027.20;;;6.72;77.70
73106;BME280;61559;50.476;15.588;2024-03-22T00:43:13;98030.57;;;6.66;78.00
73106;BME280;61559;50.476;15.588;2024-03-22T00:45:44;98025.35;;;6.58;77.86
73106;BME280;61559;50.476;15.588;2024-03-22T00:48:15;98020.54;;;6.50;78.06
73106;BME280;61559;50.476;15.588;2024-03-22T00:50:46;98025.27;;;6.40;78.08
73106;BME280;61559;50.476;15.588;2024-03-22T00:53:17;98024.30;;;6.31;78.24
73106;BME280;61559;50.476;15.588;2024-03-22T00:55:47;98022.05;;;6.22;78.42
73106;BME280;61559;50.476;15.588;2024-03-22T00:58:20;98022.19;;;6.15;78.49
73106;BME280;61559;50.476;15.588;2024-03-22T01:00:51;98018.09;;;6.08;78.62
73106;BME280;61559;50.476;15.588;2024-03-22T01:03:23;98021.50;;;6.03;78.73
73106;BME280;61559;50.476;15.588;2024-03-22T01:05:53;98022.59;;;5.99;79.09
73106;BME280;61559;50.476;15.588;2024-03-22T01:08:25;98015.98;;;5.94;79.14
73106;BME280;61559;50.476;15.588;2024-03-22T01:10:57;98014.09;;;5.90;79.41
73106;BME280;61559;50.476;15.588;2024-03-22T01:13:27;98018.90;;;5.84;79.46
73106;BME280;61559;50.476;15.588;2024-03-22T01:15:58;98023.13;;;5.76;79.67
73106;BME280;61559;50.476;15.588;2024-03-22T01:18:29;98023.55;;;5.72;79.93
73106;BME280;61559;50.476;15.588;2024-03-22T01:20:59;98022.48;;;5.70;80.36
73106;BME280;61559;50.476;15.588;2024-03-22T01:23:31;98025.96;;;5.70;80.64
73106;BME280;61559;50.476;15.588;2024-03-22T01:26:02;98023.70;;;5.72;80.88
73106;BME280;61559;50.476;15.588;2024-03-22T01:28:33;98025.27;;;5.74;81.07
73106;BME280;61559;50.476;15.588;2024-03-22T01:31:04;98028.84;;;5.77;81.25
73106;BME280;61559;50.476;15.588;2024-03-22T01:33:35;98026.54;;;5.78;81.26
73106;BME280;61559;50.476;15.588;2024-03-22T01:36:06;98023.66;;;5.81;81.72
73106;BME280;61559;50.476;15.588;2024-03-22T01:38:37;98023.29;;;5.84;81.76
73106;BME280;61559;50.476;15.588;2024-03-22T01:41:08;98020.95;;;5.86;81.98
73106;BME280;61559;50.476;15.588;2024-03-22T01:43:38;98016.19;;;5.91;82.47
73106;BME280;61559;50.476;15.588;2024-03-22T01:46:09;98010.80;;;5.98;82.99
73106;BME280;61559;50.476;15.588;2024-03-22T01:48:40;98010.05;;;6.08;83.19
73106;BME280;61559;50.476;15.588;2024-03-22T01:51:11;98009.69;;;6.18;83.03
73106;BME280;61559;50.476;15.588;2024-03-22T01:53:43;98001.87;;;6.26;82.92
73106;BME280;61559;50.476;15.588;2024-03-22T01:56:14;97998.98;;;6.30;82.71
73106;BME280;61559;50.476;15.588;2024-03-22T01:58:45;97999.67;;;6.34;82.57
73106;BME280;61559;50.476;15.588;2024-03-22T02:01:16;97995.90;;;6.38;82.69
73106;BME280;61559;50.476;15.588;2024-03-22T02:03:49;97990.61;;;6.41;82.56
73106;BME280;61559;50.476;15.588;2024-03-22T02:06:19;97990.19;;;6.44;82.47
73106;BME280;61559;50.476;15.588;2024-03-22T02:08:50;97995.45;;;6.44;82.28
73106;BME280;61559;50.476;15.588;2024-03-22T02:11:21;97992.54;;;6.45;82.45
73106;BME280;61559;50.476;15.588;2024-03-22T02:16:41;97993.60;;;6.46;82.32
73106;BME280;61559;50.476;15.588;2024-03-22T02:19:12;97999.35;;;6.51;82.32
73106;BME280;61559;50.476;15.588;2024-03-22T02:21:43;97997.70;;;6.53;82.26
73106;BME280;61559;50.476;15.588;2024-03-22T02:24:14;97997.94;;;6.55;82.22
73106;BME280;61559;50.476;15.588;2024-03-22T02:26:45;97991.84;;;6.56;82.13
73106;BME280;61559;50.476;15.588;2024-03-22T02:29:16;97990.70;;;6.58;82.06
73106;BME280;61559;50.476;15.588;2024-03-22T02:31:47;97992.28;;;6.59;82.00
73106;BME280;61559;50.476;15.588;2024-03-22T02:34:35;97990.39;;;6.59;82.09
73106;BME280;61559;50.476;15.588;2024-03-22T02:37:23;97984.10;;;6.59;82.14
73106;BME280;61559;50.476;15.588;2024-03-22T02:39:55;97984.64;;;6.61;82.02
73106;BME280;61559;50.476;15.588;2024-03-22T02:42:26;97981.00;;;6.62;82.08
73106;BME280;61559;50.476;15.588;2024-03-22T02:44:57;97976.13;;;6.63;82.03
73106;BME280;61559;50.476;15.588;2024-03-22T02:47:27;97978.33;;;6.64;81.91
73106;BME280;61559;50.476;15.588;2024-03-22T02:49:58;97970.34;;;6.64;81.99
73106;BME280;61559;50.476;15.588;2024-03-22T02:52:30;97963.92;;;6.65;82.04
73106;BME280;61559;50.476;15.588;2024-03-22T02:55:01;97962.30;;;6.65;81.90
73106;BME280;61559;50.476;15.588;2024-03-22T02:57:34;97958.45;;;6.66;81.92
73106;BME280;61559;50.476;15.588;2024-03-22T03:00:06;97960.75;;;6.67;81.99
73106;BME280;61559;50.476;15.588;2024-03-22T03:02:37;97962.42;;;6.68;82.01
73106;BME280;61559;50.476;15.588;2024-03-22T03:05:07;97960.83;;;6.68;82.10
73106;BME280;61559;50.476;15.588;2024-03-22T03:07:57;97965.05;;;6.66;82.09
73106;BME280;61559;50.476;15.588;2024-03-22T03:10:28;97966.31;;;6.68;82.25
73106;BME280;61559;50.476;15.588;2024-03-22T03:12:59;97968.86;;;6.69;82.07
73106;BME280;61559;50.476;15.588;2024-03-22T03:15:31;97966.66;;;6.70;82.23
73106;BME280;61559;50.476;15.588;2024-03-22T03:18:03;97963.95;;;6.70;82.21
73106;BME280;61559;50.476;15.588;2024-03-22T03:20:34;97967.88;;;6.71;82.27
73106;BME280;61559;50.476;15.588;2024-03-22T03:25:52;97962.08;;;6.72;82.45
73106;BME280;61559;50.476;15.588;2024-03-22T03:28:23;97959.68;;;6.71;82.78
73106;BME280;61559;50.476;15.588;2024-03-22T03:30:55;97958.77;;;6.70;82.81
73106;BME280;61559;50.476;15.588;2024-03-22T03:33:26;97946.85;;;6.69;83.08
73106;BME280;61559;50.476;15.588;2024-03-22T03:35:57;97941.02;;;6.67;83.29
73106;BME280;61559;50.476;15.588;2024-03-22T03:38:28;97941.52;;;6.66;83.54
73106;BME280;61559;50.476;15.588;2024-03-22T03:40:58;97943.31;;;6.64;83.74
73106;BME280;61559;50.476;15.588;2024-03-22T03:43:31;97947.27;;;6.63;83.75
73106;BME280;61559;50.476;15.588;2024-03-22T03:46:02;97950.59;;;6.63;83.79
73106;BME280;61559;50.476;15.588;2024-03-22T03:48:33;97944.34;;;6.63;83.76
73106;BME280;61559;50.476;15.588;2024-03-22T03:51:05;97943.52;;;6.64;83.80
73106;BME280;61559;50.476;15.588;2024-03-22T03:53:36;97945.31;;;6.64;83.83
73106;BME280;61559;50.476;15.588;2024-03-22T03:56:06;97942.03;;;6.65;83.90
73106;BME280;61559;50.476;15.588;2024-03-22T03:58:37;97940.33;;;6.66;83.84
73106;BME280;61559;50.476;15.588;2024-03-22T04:01:08;97939.24;;;6.67;83.90
73106;BME280;61559;50.476;15.588;2024-03-22T04:03:39;97935.61;;;6.67;83.75
73106;BME280;61559;50.476;15.588;2024-03-22T04:06:10;97932.48;;;6.68;83.65
73106;BME280;61559;50.476;15.588;2024-03-22T04:08:42;97926.94;;;6.70;83.77
73106;BME280;61559;50.476;15.588;2024-03-22T04:11:13;97923.95;;;6.71;83.67
73106;BME280;61559;50.476;15.588;2024-03-22T04:13:43;97921.48;;;6.73;83.52
73106;BME280;61559;50.476;15.588;2024-03-22T04:16:14;97918.29;;;6.74;83.41
73106;BME280;61559;50.476;15.588;2024-03-22T04:18:45;97916.75;;;6.75;83.44
73106;BME280;61559;50.476;15.588;2024-03-22T04:21:16;97914.66;;;6.74;83.30
73106;BME280;61559;50.476;15.588;2024-03-22T04:23:47;97913.27;;;6.75;83.31
73106;BME280;61559;50.476;15.588;2024-03-22T04:26:18;97906.87;;;6.75;83.22
73106;BME280;61559;50.476;15.588;2024-03-22T04:28:50;97898.73;;;6.75;83.13
73106;BME280;61559;50.476;15.588;2024-03-22T04:31:20;97891.77;;;6.75;83.16
73106;BME280;61559;50.476;15.588;2024-03-22T04:33:51;97890.08;;;6.75;82.97
73106;BME280;61559;50.476;15.588;2024-03-22T04:36:21;97895.86;;;6.76;82.99
73106;BME280;61559;50.476;15.588;2024-03-22T04:38:52;97900.02;;;6.73;83.05
73106;BME280;61559;50.476;15.588;2024-03-22T04:41:23;97900.33;;;6.73;82.91
73106;BME280;61559;50.476;15.588;2024-03-22T04:43:53;97901.40;;;6.74;82.81
73106;BME280;61559;50.476;15.588;2024-03-22T04:46:24;97903.24;;;6.74;82.73
73106;BME280;61559;50.476;15.588;2024-03-22T04:48:54;97904.77;;;6.75;82.69
73106;BME280;61559;50.476;15.588;2024-03-22T04:51:24;97908.11;;;6.74;82.72
73106;BME280;61559;50.476;15.588;2024-03-22T04:53:55;97914.66;;;6.74;82.61
73106;BME280;61559;50.476;15.588;2024-03-22T04:56:26;97921.98;;;6.74;82.65
73106;BME280;61559;50.476;15.588;2024-03-22T04:59:14;97919.88;;;6.75;82.56
73106;BME280;61559;50.476;15.588;2024-03-22T05:01:51;97914.35;;;6.75;82.37
73106;BME280;61559;50.476;15.588;2024-03-22T05:04:23;97918.27;;;6.76;82.28
73106;BME280;61559;50.476;15.588;2024-03-22T05:06:53;97915.80;;;6.78;82.21
73106;BME280;61559;50.476;15.588;2024-03-22T05:09:25;97914.61;;;6.79;82.08
73106;BME280;61559;50.476;15.588;2024-03-22T05:11:55;97920.69;;;6.81;81.84
73106;BME280;61559;50.476;15.588;2024-03-22T05:14:26;97923.70;;;6.82;81.81
73106;BME280;61559;50.476;15.588;2024-03-22T05:16:57;97924.20;;;6.83;81.70
73106;BME280;61559;50.476;15.588;2024-03-22T05:19:28;97926.48;;;6.84;81.49
73106;BME280;61559;50.476;15.588;2024-03-22T05:21:59;97924.79;;;6.85;81.29
73106;BME280;61559;50.476;15.588;2024-03-22T05:24:48;97922.10;;;6.88;81.28
73106;BME280;61559;50.476;15.588;2024-03-22T05:27:18;97925.36;;;6.90;81.03
73106;BME280;61559;50.476;15.588;2024-03-22T05:29:49;97919.95;;;6.93;80.96
73106;BME280;61559;50.476;15.588;2024-03-22T05:32:20;97921.04;;;6.95;80.66
73106;BME280;61559;50.476;15.588;2024-03-22T05:34:51;97922.30;;;6.97;80.53
73106;BME280;61559;50.476;15.588;2024-03-22T05:37:22;97920.54;;;6.98;80.29
73106;BME280;61559;50.476;15.588;2024-03-22T05:39:53;97919.61;;;6.98;80.03
73106;BME280;61559;50.476;15.588;2024-03-22T05:42:24;97919.86;;;6.99;79.83
73106;BME280;61559;50.476;15.588;2024-03-22T05:47:44;97925.84;;;7.02;79.54
73106;BME280;61559;50.476;15.588;2024-03-22T05:50:16;97928.17;;;7.03;79.48
73106;BME280;61559;50.476;15.588;2024-03-22T05:52:47;97930.00;;;7.05;79.50
73106;BME280;61559;50.476;15.588;2024-03-22T05:55:17;97932.27;;;7.08;79.33
73106;BME280;61559;50.476;15.588;2024-03-22T05:57:48;97929.55;;;7.09;79.24
73106;BME280;61559;50.476;15.588;2024-03-22T06:00:19;97934.89;;;7.12;79.28
73106;BME280;61559;50.476;15.588;2024-03-22T06:02:51;97936.50;;;7.14;79.06
73106;BME280;61559;50.476;15.588;2024-03-22T06:05:21;97933.91;;;7.17;79.02
73106;BME280;61559;50.476;15.588;2024-03-22T06:07:52;97931.73;;;7.21;78.96
73106;BME280;61559;50.476;15.588;2024-03-22T06:10:23;97936.04;;;7.25;78.79
73106;BME280;61559;50.476;15.588;2024-03-22T06:12:53;97930.48;;;7.28;78.63
73106;BME280;61559;50.476;15.588;2024-03-22T06:15:24;97935.56;;;7.30;78.48
73106;BME280;61559;50.476;15.588;2024-03-22T06:18:13;97935.15;;;7.36;78.54
73106;BME280;61559;50.476;15.588;2024-03-22T06:20:44;97934.66;;;7.42;78.45
73106;BME280;61559;50.476;15.588;2024-03-22T06:23:13;97936.92;;;7.50;78.30
73106;BME280;61559;50.476;15.588;2024-03-22T06:25:52;97939.24;;;7.53;77.93
73106;BME280;61559;50.476;15.588;2024-03-22T06:28:23;97931.66;;;7.58;77.72
73106;BME280;61559;50.476;15.588;2024-03-22T06:30:54;97930.43;;;7.62;77.35
73106;BME280;61559;50.476;15.588;2024-03-22T06:33:24;97933.24;;;7.66;77.39
73106;BME280;61559;50.476;15.588;2024-03-22T06:35:55;97929.23;;;7.72;77.30
73106;BME280;61559;50.476;15.588;2024-03-22T06:38:26;97927.73;;;7.79;77.29
73106;BME280;61559;50.476;15.588;2024-03-22T06:40:56;97922.43;;;7.86;76.94
73106;BME280;61559;50.476;15.588;2024-03-22T06:43:29;97921.39;;;7.92;76.58
73106;BME280;61559;50.476;15.588;2024-03-22T06:45:59;97922.23;;;7.97;76.62
73106;BME280;61559;50.476;15.588;2024-03-22T06:48:31;97923.92;;;8.05;76.61
73106;BME280;61559;50.476;15.588;2024-03-22T06:51:02;97925.10;;;8.12;76.58
73106;BME280;61559;50.476;15.588;2024-03-22T06:53:33;97923.65;;;8.17;76.25
73106;BME280;61559;50.476;15.588;2024-03-22T06:56:22;97924.33;;;8.19;75.41
73106;BME280;61559;50.476;15.588;2024-03-22T06:58:52;97923.12;;;8.17;75.38
73106;BME280;61559;50.476;15.588;2024-03-22T07:01:22;97922.11;;;8.16;74.61
73106;BME280;61559;50.476;15.588;2024-03-22T07:03:52;97922.15;;;8.11;74.38
73106;BME280;61559;50.476;15.588;2024-03-22T07:06:23;97919.79;;;8.14;74.80
73106;BME280;61559;50.476;15.588;2024-03-22T07:08:53;97913.63;;;8.25;74.90
73106;BME280;61559;50.476;15.588;2024-03-22T07:11:23;97906.11;;;8.34;74.70
73106;BME280;61559;50.476;15.588;2024-03-22T07:13:54;97901.14;;;8.47;74.50
73106;BME280;61559;50.476;15.588;2024-03-22T07:16:25;97904.55;;;8.64;74.40
73106;BME280;61559;50.476;15.588;2024-03-22T07:18:56;97906.34;;;8.78;73.81
73106;BME280;61559;50.476;15.588;2024-03-22T07:21:26;97899.17;;;8.85;74.07
73106;BME280;61559;50.476;15.588;2024-03-22T07:23:57;97899.20;;;8.92;74.31
73106;BME280;61559;50.476;15.588;2024-03-22T07:26:28;97896.42;;;9.01;74.20
73106;BME280;61559;50.476;15.588;2024-03-22T07:28:59;97898.33;;;9.11;74.17
73106;BME280;61559;50.476;15.588;2024-03-22T07:31:32;97902.07;;;9.23;73.99
73106;BME280;61559;50.476;15.588;2024-03-22T07:34:03;97894.70;;;9.35;73.72
73106;BME280;61559;50.476;15.588;2024-03-22T07:36:36;97894.95;;;9.42;73.34
73106;BME280;61559;50.476;15.588;2024-03-22T07:39:07;97895.33;;;9.44;73.01
73106;BME280;61559;50.476;15.588;2024-03-22T07:41:39;97895.70;;;9.48;72.63
73106;BME280;61559;50.476;15.588;2024-03-22T07:44:09;97889.18;;;9.55;72.67
73106;BME280;61559;50.476;15.588;2024-03-22T07:46:42;97889.90;;;9.59;71.65
73106;BME280;61559;50.476;15.588;2024-03-22T07:49:12;97888.66;;;9.59;70.67
73106;BME280;61559;50.476;15.588;2024-03-22T07:51:42;97885.98;;;9.61;70.97
73106;BME280;61559;50.476;15.588;2024-03-22T07:54:12;97881.45;;;9.62;70.20
73106;BME280;61559;50.476;15.588;2024-03-22T07:56:43;97877.77;;;9.56;69.85
73106;BME280;61559;50.476;15.588;2024-03-22T07:59:14;97877.48;;;9.51;70.05
73106;BME280;61559;50.476;15.588;2024-03-22T08:01:45;97878.66;;;9.49;70.33
73106;BME280;61559;50.476;15.588;2024-03-22T08:04:16;97879.68;;;9.49;70.11
73106;BME280;61559;50.476;15.588;2024-03-22T08:06:50;97879.47;;;9.50;70.37
73106;BME280;61559;50.476;15.588;2024-03-22T08:09:20;97881.73;;;9.50;70.04
73106;BME280;61559;50.476;15.588;2024-03-22T08:11:51;97879.13;;;9.52;70.15
73106;BME280;61559;50.476;15.588;2024-03-22T08:14:22;97881.23;;;9.51;70.20
73106;BME280;61559;50.476;15.588;2024-03-22T08:16:53;97884.02;;;9.54;70.56
73106;BME280;61559;50.476;15.588;2024-03-22T08:19:22;97883.09;;;9.58;70.40
73106;BME280;61559;50.476;15.588;2024-03-22T08:21:53;97881.13;;;9.58;70.01
73106;BME280;61559;50.476;15.588;2024-03-22T08:24:24;97882.25;;;9.54;69.32
73106;BME280;61559;50.476;15.588;2024-03-22T08:26:55;97878.92;;;9.46;69.25
73106;BME280;61559;50.476;15.588;2024-03-22T08:29:25;97877.75;;;9.46;69.73
73106;BME280;61559;50.476;15.588;2024-03-22T08:31:56;97872.31;;;9.48;69.62
73106;BME280;61559;50.476;15.588;2024-03-22T08:34:27;97872.01;;;9.50;69.54
73106;BME280;61559;50.476;15.588;2024-03-22T08:36:58;97870.95;;;9.51;69.19
73106;BME280;61559;50.476;15.588;2024-03-22T08:39:29;97867.06;;;9.59;69.66
73106;BME280;61559;50.476;15.588;2024-03-22T08:41:58;97869.14;;;9.72;69.45
73106;BME280;61559;50.476;15.588;2024-03-22T08:44:29;97868.66;;;9.73;68.54
73106;BME280;61559;50.476;15.588;2024-03-22T08:47:00;97867.37;;;9.82;69.04
73106;BME280;61559;50.476;15.588;2024-03-22T08:49:34;97860.61;;;9.95;68.72
73106;BME280;61559;50.476;15.588;2024-03-22T08:52:07;97857.83;;;10.08;68.36
73106;BME280;61559;50.476;15.588;2024-03-22T08:54:38;97849.59;;;10.17;67.18
73106;BME280;61559;50.476;15.588;2024-03-22T08:57:09;97845.71;;;10.28;67.47
73106;BME280;61559;50.476;15.588;2024-03-22T08:59:39;97846.59;;;10.43;67.73
73106;BME280;61559;50.476;15.588;2024-03-22T09:02:10;97847.02;;;10.49;66.39
73106;BME280;61559;50.476;15.588;2024-03-22T09:04:41;97845.91;;;10.49;66.56
73106;BME280;61559;50.476;15.588;2024-03-22T09:07:11;97839.69;;;10.51;66.43
73106;BME280;61559;50.476;15.588;2024-03-22T09:09:41;97836.98;;;10.47;66.23
73106;BME280;61559;50.476;15.588;2024-03-22T09:12:11;97829.12;;;10.49;66.87
73106;BME280;61559;50.476;15.588;2024-03-22T09:14:42;97825.61;;;10.54;67.56
73106;BME280;61559;50.476;15.588;2024-03-22T09:17:13;97827.67;;;10.65;66.86
73106;BME280;61559;50.476;15.588;2024-03-22T09:19:42;97821.69;;;10.70;66.49
73106;BME280;61559;50.476;15.588;2024-03-22T09:22:13;97820.27;;;10.74;66.90
73106;BME280;61559;50.476;15.588;2024-03-22T09:24:45;97816.76;;;10.81;66.77
73106;BME280;61559;50.476;15.588;2024-03-22T09:27:15;97810.19;;;10.86;65.38
73106;BME280;61559;50.476;15.588;2024-03-22T09:29:48;97810.81;;;10.83;64.60
73106;BME280;61559;50.476;15.588;2024-03-22T09:32:19;97807.71;;;10.86;65.33
73106;BME280;61559;50.476;15.588;2024-03-22T09:34:51;97805.11;;;10.94;65.35
73106;BME280;61559;50.476;15.588;2024-03-22T09:37:22;97804.15;;;10.99;64.65
73106;BME280;61559;50.476;15.588;2024-03-22T09:39:51;97801.82;;;10.96;64.10
73106;BME280;61559;50.476;15.588;2024-03-22T09:42:23;97802.77;;;10.89;64.62
73106;BME280;61559;50.476;15.588;2024-03-22T09:44:57;97804.09;;;10.95;65.21
73106;BME280;61559;50.476;15.588;2024-03-22T09:47:26;97800.34;;;11.02;64.88
73106;BME280;61559;50.476;15.588;2024-03-22T09:49:58;97795.11;;;11.07;65.20
73106;BME280;61559;50.476;15.588;2024-03-22T09:52:34;97796.11;;;11.22;65.71
73106;BME280;61559;50.476;15.588;2024-03-22T09:55:09;97797.20;;;11.41;65.25
73106;BME280;61559;50.476;15.588;2024-03-22T09:57:40;97796.55;;;11.52;64.78
73106;BME280;61559;50.476;15.588;2024-03-22T10:00:16;97793.67;;;11.58;64.25
73106;BME280;61559;50.476;15.588;2024-03-22T10:03:00;97793.91;;;11.66;63.40
73106;BME280;61559;50.476;15.588;2024-03-22T10:05:31;97784.48;;;11.62;62.65
73106;BME280;61559;50.476;15.588;2024-03-22T10:08:02;97778.73;;;11.59;62.91
73106;BME280;61559;50.476;15.588;2024-03-22T10:10:34;97777.31;;;11.58;63.11
73106;BME280;61559;50.476;15.588;2024-03-22T10:13:05;97776.97;;;11.63;62.15
73106;BME280;61559;50.476;15.588;2024-03-22T10:15:42;97777.52;;;11.65;61.70
73106;BME280;61559;50.476;15.588;2024-03-22T10:18:12;97778.70;;;11.64;61.73
73106;BME280;61559;50.476;15.588;2024-03-22T10:20:44;97778.98;;;11.68;62.04
73106;BME280;61559;50.476;15.588;2024-03-22T10:23:15;97778.70;;;11.81;62.59
73106;BME280;61559;50.476;15.588;2024-03-22T10:25:46;97776.64;;;11.97;61.78
73106;BME280;61559;50.476;15.588;2024-03-22T10:28:17;97773.48;;;12.00;59.86
73106;BME280;61559;50.476;15.588;2024-03-22T10:30:49;97768.17;;;11.99;60.66
73106;BME280;61559;50.476;15.588;2024-03-22T10:33:21;97770.17;;;11.98;60.44
73106;BME280;61559;50.476;15.588;2024-03-22T10:35:54;97768.09;;;12.04;61.41
73106;BME280;61559;50.476;15.588;2024-03-22T10:38:26;97763.45;;;12.08;59.78
73106;BME280;61559;50.476;15.588;2024-03-22T10:40:58;97764.15;;;12.09;60.44
73106;BME280;61559;50.476;15.588;2024-03-22T10:43:34;97759.96;;;12.11;59.68
73106;BME280;61559;50.476;15.588;2024-03-22T10:46:06;97763.13;;;12.13;60.00
73106;BME280;61559;50.476;15.588;2024-03-22T10:48:39;97754.95;;;12.20;59.95
73106;BME280;61559;50.476;15.588;2024-03-22T10:51:11;97751.86;;;12.24;59.24
73106;BME280;61559;50.476;15.588;2024-03-22T10:53:43;97748.71;;;12.21;58.27
73106;BME280;61559;50.476;15.588;2024-03-22T10:56:17;97750.88;;;12.20;59.03
73106;BME280;61559;50.476;15.588;2024-03-22T10:58:50;97746.98;;;12.26;60.03
73106;BME280;61559;50.476;15.588;2024-03-22T11:01:25;97749.57;;;12.35;59.69
73106;BME280;61559;50.476;15.588;2024-03-22T11:04:05;97743.65;;;12.40;59.69
73106;BME280;61559;50.476;15.588;2024-03-22T11:06:38;97739.50;;;12.42;59.02
73106;BME280;61559;50.476;15.588;2024-03-22T11:09:10;97737.16;;;12.38;58.11
73106;BME280;61559;50.476;15.588;2024-03-22T11:11:42;97736.62;;;12.30;58.50
73106;BME280;61559;50.476;15.588;2024-03-22T11:14:13;97736.06;;;12.31;59.39
73106;BME280;61559;50.476;15.588;2024-03-22T11:16:45;97733.84;;;12.39;59.36
73106;BME280;61559;50.476;15.588;2024-03-22T11:19:15;97728.36;;;12.42;58.60
73106;BME280;61559;50.476;15.588;2024-03-22T11:21:48;97723.66;;;12.39;58.29
73106;BME280;61559;50.476;15.588;2024-03-22T11:24:19;97718.84;;;12.42;58.66
73106;BME280;61559;50.476;15.588;2024-03-22T11:26:50;97717.78;;;12.47;58.68
73106;BME280;61559;50.476;15.588;2024-03-22T11:29:21;97715.98;;;12.53;57.95
73106;BME280;61559;50.476;15.588;2024-03-22T11:31:52;97721.85;;;12.50;57.47
73106;BME280;61559;50.476;15.588;2024-03-22T11:34:23;97714.70;;;12.45;57.88
73106;BME280;61559;50.476;15.588;2024-03-22T11:36:55;97709.06;;;12.47;57.65
73106;BME280;61559;50.476;15.588;2024-03-22T11:39:26;97702.17;;;12.51;57.64
73106;BME280;61559;50.476;15.588;2024-03-22T11:41:57;97694.33;;;12.56;57.84
73106;BME280;61559;50.476;15.588;2024-03-22T11:44:29;97697.09;;;12.61;57.02
73106;BME280;61559;50.476;15.588;2024-03-22T11:47:00;97697.09;;;12.67;56.95
73106;BME280;61559;50.476;15.588;2024-03-22T11:49:33;97697.02;;;12.69;56.46
73106;BME280;61559;50.476;15.588;2024-03-22T11:52:05;97691.84;;;12.71;56.75
73106;BME280;61559;50.476;15.588;2024-03-22T11:54:40;97684.34;;;12.74;56.77
73106;BME280;61559;50.476;15.588;2024-03-22T11:57:11;97672.00;;;12.82;56.75
73106;BME280;61559;50.476;15.588;2024-03-22T11:59:43;97665.02;;;12.91;56.97
73106;BME280;61559;50.476;15.588;2024-03-22T12:02:27;97657.31;;;12.99;56.14
73106;BME280;61559;50.476;15.588;2024-03-22T12:04:58;97655.62;;;13.06;55.64
73106;BME280;61559;50.476;15.588;2024-03-22T12:07:29;97650.65;;;13.08;54.97
73106;BME280;61559;50.476;15.588;2024-03-22T12:09:59;97645.77;;;13.06;55.12
73106;BME280;61559;50.476;15.588;2024-03-22T12:12:30;97642.08;;;13.06;55.37
73106;BME280;61559;50.476;15.588;2024-03-22T12:15:01;97640.73;;;13.14;54.77
73106;BME280;61559;50.476;15.588;2024-03-22T12:17:33;97635.02;;;13.19;54.70
73106;BME280;61559;50.476;15.588;2024-03-22T12:20:09;97633.95;;;13.23;54.15
73106;BME280;61559;50.476;15.588;2024-03-22T12:22:40;97626.30;;;13.28;54.15
73106;BME280;61559;50.476;15.588;2024-03-22T12:25:10;97623.98;;;13.34;54.40
73106;BME280;61559;50.476;15.588;2024-03-22T12:27:41;97619.45;;;13.48;55.32
73106;BME280;61559;50.476;15.588;2024-03-22T12:30:14;97611.24;;;13.61;54.02
73106;BME280;61559;50.476;15.588;2024-03-22T12:32:45;97609.64;;;13.67;53.41
73106;BME280;61559;50.476;15.588;2024-03-22T12:35:17;97602.86;;;13.72;53.80
73106;BME280;61559;50.476;15.588;2024-03-22T12:37:48;97596.63;;;13.76;52.12
73106;BME280;61559;50.476;15.588;2024-03-22T12:40:19;97587.61;;;13.71;50.46
73106;BME280;61559;50.476;15.588;2024-03-22T12:42:50;97586.61;;;13.68;49.71
73106;BME280;61559;50.476;15.588;2024-03-22T12:45:19;97589.38;;;13.66;50.02
73106;BME280;61559;50.476;15.588;2024-03-22T12:47:50;97580.70;;;13.63;49.83
73106;BME280;61559;50.476;15.588;2024-03-22T12:50:21;97578.63;;;13.63;49.67
73106;BME280;61559;50.476;15.588;2024-03-22T12:52:50;97574.42;;;13.61;49.16
73106;BME280;61559;50.476;15.588;2024-03-22T12:55:21;97570.70;;;13.58;49.62
73106;BME280;61559;50.476;15.588;2024-03-22T12:57:50;97562.70;;;13.65;50.33
73106;BME280;61559;50.476;15.588;2024-03-22T13:00:21;97559.93;;;13.68;49.89
73106;BME280;61559;50.476;15.588;2024-03-22T13:02:53;97558.02;;;13.73;49.61
73106;BME280;61559;50.476;15.588;2024-03-22T13:05:23;97557.70;;;13.73;48.95
73106;BME280;61559;50.476;15.588;2024-03-22T13:07:54;97558.20;;;13.68;49.47
73106;BME280;61559;50.476;15.588;2024-03-22T13:10:25;97554.86;;;13.70;49.87
73106;BME280;61559;50.476;15.588;2024-03-22T13:12:58;97551.76;;;13.72;49.35
73106;BME280;61559;50.476;15.588;2024-03-22T13:15:29;97544.05;;;13.72;48.92
73106;BME280;61559;50.476;15.588;2024-03-22T13:18:01;97541.47;;;13.72;48.92
73106;BME280;61559;50.476;15.588;2024-03-22T13:20:34;97536.27;;;13.73;49.04
73106;BME280;61559;50.476;15.588;2024-03-22T13:23:05;97531.20;;;13.80;49.32
73106;BME280;61559;50.476;15.588;2024-03-22T13:25:37;97530.14;;;13.90;50.08
73106;BME280;61559;50.476;15.588;2024-03-22T13:28:08;97522.36;;;13.97;48.65